createdAt,value
2019-02-24T00:02:09.466Z,50.70
2019-02-24T00:04:38.723Z,50.40
2019-02-24T00:07:07.952Z,50.60
2019-02-24T00:09:37.219Z,50.20
2019-02-24T00:12:06.463Z,50.20
2019-02-24T00:14:35.714Z,50.40
2019-02-24T00:17:04.998Z,50.10
2019-02-24T00:19:34.350Z,50.00
2019-02-24T00:22:03.591Z,50.00
2019-02-24T00:24:32.899Z,49.80
2019-02-24T00:27:02.154Z,50.10
2019-02-24T00:29:31.423Z,50.20
2019-02-24T00:32:00.664Z,50.10
2019-02-24T00:34:29.944Z,50.00
2019-02-24T00:36:59.187Z,49.80
2019-02-24T00:39:28.464Z,49.70
2019-02-24T00:41:57.726Z,50.00
2019-02-24T00:44:27.081Z,49.80
2019-02-24T00:46:56.345Z,49.70
2019-02-24T00:49:25.576Z,49.60
2019-02-24T00:51:54.911Z,49.50
2019-02-24T00:54:24.219Z,49.30
2019-02-24T00:56:53.497Z,49.00
2019-02-24T00:59:22.805Z,48.90
2019-02-24T01:01:52.098Z,48.70
2019-02-24T01:04:21.343Z,48.60
2019-02-24T01:06:50.594Z,48.10
2019-02-24T01:09:19.818Z,48.20
2019-02-24T01:11:49.102Z,48.10
2019-02-24T01:14:18.330Z,48.20
2019-02-24T01:16:47.622Z,48.20
2019-02-24T01:19:16.849Z,48.00
2019-02-24T01:21:46.179Z,48.10
2019-02-24T01:24:15.415Z,48.50
2019-02-24T01:26:44.664Z,48.30
2019-02-24T01:29:13.903Z,48.30
2019-02-24T01:31:43.154Z,48.50
2019-02-24T01:34:12.384Z,48.40
2019-02-24T01:36:41.653Z,48.60
2019-02-24T01:39:10.900Z,48.90
2019-02-24T01:41:40.065Z,48.50
2019-02-24T01:44:09.295Z,48.10
2019-02-24T01:46:38.635Z,48.20
2019-02-24T01:49:07.884Z,48.30
2019-02-24T01:51:37.132Z,48.60
2019-02-24T01:54:06.371Z,48.60
2019-02-24T01:56:36.643Z,48.90
2019-02-24T01:59:05.885Z,49.40
2019-02-24T02:01:35.142Z,49.40
2019-02-24T02:04:04.385Z,49.40
2019-02-24T02:06:33.716Z,49.60
2019-02-24T02:09:02.977Z,49.00
2019-02-24T02:11:32.311Z,49.20
2019-02-24T02:14:01.547Z,49.20
2019-02-24T02:16:30.791Z,48.60
2019-02-24T02:19:00.402Z,48.50
2019-02-24T02:21:29.635Z,48.60
2019-02-24T02:23:58.818Z,48.90
2019-02-24T02:26:28.046Z,48.30
2019-02-24T02:28:57.335Z,48.30
2019-02-24T02:31:26.570Z,48.40
2019-02-24T02:33:55.894Z,48.50
2019-02-24T02:36:25.193Z,48.40
2019-02-24T02:38:54.740Z,48.40
2019-02-24T02:41:23.971Z,48.50
2019-02-24T02:43:53.292Z,48.20
2019-02-24T02:46:22.526Z,48.10
2019-02-24T02:48:51.788Z,47.80
2019-02-24T02:51:21.108Z,47.80
2019-02-24T02:53:50.379Z,47.80
2019-02-24T02:56:19.706Z,47.90
2019-02-24T02:58:54.272Z,47.50
2019-02-24T03:01:19.915Z,47.70
2019-02-24T03:03:49.168Z,47.80
2019-02-24T03:06:29.598Z,47.70
2019-02-24T03:08:58.860Z,47.10
2019-02-24T03:11:28.093Z,46.60
2019-02-24T03:13:57.281Z,46.50
2019-02-24T03:16:28.648Z,46.70
2019-02-24T03:18:57.915Z,46.40
2019-02-24T03:21:27.181Z,46.00
2019-02-24T03:23:56.454Z,46.20
2019-02-24T03:26:25.686Z,46.00
2019-02-24T03:29:03.634Z,46.00
2019-02-24T03:31:25.913Z,45.80
2019-02-24T03:33:55.163Z,45.60
2019-02-24T03:36:24.461Z,46.20
2019-02-24T03:38:53.717Z,46.20
2019-02-24T03:41:22.958Z,45.70
2019-02-24T03:43:52.224Z,45.80
2019-02-24T03:46:21.505Z,45.70
2019-02-24T03:48:50.799Z,45.70
2019-02-24T03:51:20.052Z,45.80
2019-02-24T03:53:49.287Z,45.50
2019-02-24T03:56:18.530Z,46.10
2019-02-24T03:58:47.881Z,46.10
2019-02-24T04:01:17.098Z,45.90
2019-02-24T04:03:46.390Z,46.10
2019-02-24T04:06:15.705Z,46.00
2019-02-24T04:08:44.994Z,46.40
2019-02-24T04:11:14.221Z,46.00
2019-02-24T04:14:02.575Z,46.30
2019-02-24T04:16:31.819Z,46.50
2019-02-24T04:19:01.152Z,46.60
2019-02-24T04:21:30.472Z,46.40
2019-02-24T04:23:59.726Z,46.00
2019-02-24T04:26:28.977Z,46.00
2019-02-24T04:28:58.290Z,46.10
2019-02-24T04:31:27.548Z,45.80
2019-02-24T04:33:56.832Z,46.10
2019-02-24T04:36:26.057Z,46.20
2019-02-24T04:38:55.331Z,46.10
2019-02-24T04:41:24.560Z,45.90
2019-02-24T04:43:53.736Z,45.60
2019-02-24T04:46:23.055Z,45.50
2019-02-24T04:48:52.316Z,45.90
2019-02-24T04:51:21.561Z,45.70
2019-02-24T04:53:50.904Z,45.70
2019-02-24T04:56:20.214Z,46.00
2019-02-24T04:58:49.406Z,46.20
2019-02-24T05:01:18.655Z,46.60
2019-02-24T05:03:47.924Z,46.40
2019-02-24T05:06:17.075Z,46.30
2019-02-24T05:08:46.349Z,45.80
2019-02-24T05:11:15.667Z,45.50
2019-02-24T05:13:44.912Z,45.40
2019-02-24T05:16:14.199Z,45.20
2019-02-24T05:18:43.436Z,44.70
2019-02-24T05:21:12.770Z,44.70
2019-02-24T05:23:43.074Z,44.20
2019-02-24T05:26:12.546Z,44.10
2019-02-24T05:28:41.759Z,44.10
2019-02-24T05:31:11.048Z,44.10
2019-02-24T05:33:40.282Z,44.20
2019-02-24T05:36:09.548Z,44.00
2019-02-24T05:38:38.745Z,44.10
2019-02-24T05:41:08.018Z,44.20
2019-02-24T05:43:37.283Z,44.40
2019-02-24T05:46:06.508Z,44.60
2019-02-24T05:48:36.031Z,44.40
2019-02-24T05:51:05.238Z,44.40
2019-02-24T05:53:34.546Z,44.50
2019-02-24T05:56:03.801Z,44.40
2019-02-24T05:58:33.121Z,44.80
2019-02-24T06:01:02.458Z,44.40
2019-02-24T06:03:31.774Z,44.70
2019-02-24T06:06:01.107Z,44.60
2019-02-24T06:08:30.259Z,44.70
2019-02-24T06:10:59.604Z,44.70
2019-02-24T06:13:28.833Z,44.50
2019-02-24T06:15:58.177Z,44.70
2019-02-24T06:18:27.419Z,44.50
2019-02-24T06:20:56.741Z,44.60
2019-02-24T06:23:26.067Z,44.70
2019-02-24T06:25:55.252Z,44.40
2019-02-24T06:28:24.598Z,44.30
2019-02-24T06:30:53.910Z,44.20
2019-02-24T06:33:23.232Z,44.00
2019-02-24T06:35:52.483Z,44.30
2019-02-24T06:38:21.840Z,44.20
2019-02-24T06:40:51.080Z,44.20
2019-02-24T06:43:20.349Z,44.30
2019-02-24T06:45:49.670Z,43.90
2019-02-24T06:48:19.007Z,44.10
2019-02-24T06:50:57.751Z,44.40
2019-02-24T06:53:27.165Z,44.20
2019-02-24T06:55:56.471Z,44.20
2019-02-24T06:58:25.720Z,44.00
2019-02-24T07:00:55.029Z,44.10
2019-02-24T07:03:24.297Z,43.80
2019-02-24T07:05:53.556Z,44.20
2019-02-24T07:08:22.820Z,43.40
2019-02-24T07:10:52.132Z,43.40
2019-02-24T07:13:21.562Z,43.50
2019-02-24T07:15:50.831Z,43.30
2019-02-24T07:18:20.103Z,43.20
2019-02-24T07:20:49.355Z,43.70
2019-02-24T07:23:18.612Z,43.30
2019-02-24T07:25:47.871Z,42.80
2019-02-24T07:28:17.144Z,43.10
2019-02-24T07:30:46.412Z,42.60
2019-02-24T07:33:15.692Z,42.40
2019-02-24T07:35:45.007Z,41.60
2019-02-24T07:38:14.316Z,41.20
2019-02-24T07:40:43.592Z,41.30
2019-02-24T07:43:12.909Z,41.10
2019-02-24T07:45:42.214Z,41.00
2019-02-24T07:48:11.524Z,40.20
2019-02-24T07:50:40.832Z,40.40
2019-02-24T07:53:10.214Z,40.70
2019-02-24T07:55:39.541Z,40.10
2019-02-24T07:58:08.800Z,39.10
2019-02-24T08:00:38.066Z,38.90
2019-02-24T08:03:07.423Z,39.20
2019-02-24T08:05:36.744Z,39.50
2019-02-24T08:08:06.091Z,38.60
2019-02-24T08:10:35.431Z,37.70
2019-02-24T08:13:04.675Z,36.90
2019-02-24T08:15:34.119Z,36.80
2019-02-24T08:18:03.365Z,37.30
2019-02-24T08:20:33.475Z,36.00
2019-02-24T08:23:02.851Z,36.70
2019-02-24T08:25:32.193Z,36.00
2019-02-24T08:28:01.503Z,36.80
2019-02-24T08:30:30.756Z,36.70
2019-02-24T08:32:59.934Z,36.10
2019-02-24T08:35:29.333Z,36.00
2019-02-24T08:37:58.604Z,36.00
2019-02-24T08:40:27.963Z,36.70
2019-02-24T08:42:57.119Z,35.70
2019-02-24T08:45:26.401Z,35.30
2019-02-24T08:47:55.703Z,35.20
2019-02-24T08:50:24.998Z,34.50
2019-02-24T08:52:54.223Z,34.80
2019-02-24T08:55:23.523Z,33.60
2019-02-24T08:57:52.698Z,60.70
2019-02-24T09:00:21.954Z,51.00
2019-02-24T09:02:52.619Z,37.20
2019-02-24T09:05:22.042Z,32.60
2019-02-24T09:07:51.291Z,32.30
2019-02-24T09:10:20.628Z,32.50
2019-02-24T09:12:49.854Z,32.10
2019-02-24T09:15:19.118Z,32.70
2019-02-24T09:17:48.355Z,33.00
2019-02-24T09:20:17.547Z,32.40
2019-02-24T09:22:46.859Z,31.50
2019-02-24T09:25:16.201Z,31.20
2019-02-24T09:27:45.444Z,31.70
2019-02-24T09:30:14.791Z,31.00
2019-02-24T09:32:44.023Z,30.60
2019-02-24T09:35:13.298Z,30.10
2019-02-24T09:37:42.596Z,30.90
2019-02-24T09:40:11.841Z,31.00
2019-02-24T09:42:41.178Z,30.40
2019-02-24T09:45:10.532Z,29.90
2019-02-24T09:47:46.380Z,29.90
2019-02-24T09:50:10.942Z,29.20
2019-02-24T09:52:40.256Z,29.30
2019-02-24T09:55:09.511Z,29.70
2019-02-24T09:57:38.783Z,29.70
2019-02-24T10:00:09.296Z,28.90
2019-02-24T10:02:38.648Z,29.50
2019-02-24T10:05:08.000Z,28.80
2019-02-24T10:07:37.342Z,29.50
2019-02-24T10:10:07.220Z,28.90
2019-02-24T10:12:36.562Z,29.00
2019-02-24T10:15:05.833Z,28.20
2019-02-24T10:17:35.164Z,28.10
2019-02-24T10:20:04.607Z,28.30
2019-02-24T10:22:33.814Z,27.30
2019-02-24T10:25:03.056Z,27.10
2019-02-24T10:27:32.316Z,27.20
2019-02-24T10:30:01.560Z,27.20
2019-02-24T10:32:30.889Z,28.10
2019-02-24T10:35:00.302Z,28.20
2019-02-24T10:37:29.646Z,28.40
2019-02-24T10:39:58.916Z,27.00
2019-02-24T10:42:28.288Z,27.00
2019-02-24T10:44:57.528Z,28.10
2019-02-24T10:47:26.799Z,28.00
2019-02-24T10:49:56.061Z,26.30
2019-02-24T10:52:25.391Z,26.10
2019-02-24T10:54:54.723Z,26.00
2019-02-24T10:57:24.085Z,26.60
2019-02-24T10:59:53.395Z,27.00
2019-02-24T11:02:22.664Z,27.00
2019-02-24T11:04:51.891Z,25.60
2019-02-24T11:07:21.163Z,25.20
2019-02-24T11:09:50.400Z,26.80
2019-02-24T11:12:19.669Z,26.60
2019-02-24T11:14:48.993Z,26.40
2019-02-24T11:17:18.239Z,26.40
2019-02-24T11:19:47.548Z,26.50
2019-02-24T11:22:16.858Z,26.50
2019-02-24T11:24:46.039Z,25.80
2019-02-24T11:27:15.212Z,25.20
2019-02-24T11:29:44.468Z,25.60
2019-02-24T11:32:13.705Z,24.00
2019-02-24T11:34:42.963Z,24.50
2019-02-24T11:37:12.241Z,25.10
2019-02-24T11:39:41.595Z,25.30
2019-02-24T11:42:10.900Z,24.40
2019-02-24T11:44:40.163Z,23.70
2019-02-24T11:47:09.400Z,24.70
2019-02-24T11:49:38.742Z,25.20
2019-02-24T11:52:08.028Z,24.30
2019-02-24T11:54:37.356Z,24.70
2019-02-24T11:57:06.595Z,24.60
2019-02-24T11:59:35.860Z,24.80
2019-02-24T12:02:05.113Z,25.10
2019-02-24T12:04:34.444Z,24.30
2019-02-24T12:07:03.774Z,25.20
2019-02-24T12:09:33.045Z,25.40
2019-02-24T12:12:02.299Z,24.60
2019-02-24T12:14:31.644Z,24.60
2019-02-24T12:17:00.902Z,24.60
2019-02-24T12:19:30.176Z,24.90
2019-02-24T12:21:59.479Z,24.10
2019-02-24T12:24:28.816Z,23.80
2019-02-24T12:26:58.057Z,24.80
2019-02-24T12:29:27.401Z,24.30
2019-02-24T12:31:56.939Z,25.50
2019-02-24T12:34:26.255Z,23.90
2019-02-24T12:36:55.500Z,25.40
2019-02-24T12:39:24.757Z,25.30
2019-02-24T12:41:54.032Z,24.30
2019-02-24T12:44:23.301Z,24.40
2019-02-24T12:46:52.544Z,24.20
2019-02-24T12:49:21.747Z,23.20
2019-02-24T12:51:50.998Z,23.50
2019-02-24T12:54:20.180Z,23.90
2019-02-24T12:56:49.419Z,24.00
2019-02-24T12:59:18.671Z,23.60
2019-02-24T13:01:48.012Z,23.50
2019-02-24T13:04:17.265Z,23.30
2019-02-24T13:06:46.591Z,23.40
2019-02-24T13:09:15.833Z,22.20
2019-02-24T13:11:45.092Z,23.70
2019-02-24T13:14:14.331Z,22.40
2019-02-24T13:16:43.898Z,23.80
2019-02-24T13:19:13.051Z,22.50
2019-02-24T13:21:42.344Z,21.30
2019-02-24T13:24:11.621Z,20.70
2019-02-24T13:26:40.875Z,19.50
2019-02-24T13:29:10.051Z,19.20
2019-02-24T13:31:39.352Z,20.80
2019-02-24T13:34:08.637Z,19.90
2019-02-24T13:36:37.959Z,17.70
2019-02-24T13:39:07.512Z,18.80
2019-02-24T13:41:36.719Z,20.00
2019-02-24T13:44:05.964Z,17.40
2019-02-24T13:46:35.305Z,17.60
2019-02-24T13:49:04.616Z,16.80
2019-02-24T13:51:33.947Z,18.00
2019-02-24T13:54:03.273Z,18.00
2019-02-24T13:56:32.456Z,18.10
2019-02-24T13:59:01.632Z,18.60
2019-02-24T14:01:30.900Z,16.90
2019-02-24T14:04:00.122Z,16.30
2019-02-24T14:06:29.378Z,16.30
2019-02-24T14:08:58.621Z,16.00
2019-02-24T14:11:27.880Z,16.70
2019-02-24T14:13:57.127Z,15.70
2019-02-24T14:16:26.413Z,17.80
2019-02-24T14:18:55.714Z,16.80
2019-02-24T14:21:24.972Z,16.00
2019-02-24T14:23:54.143Z,15.80
2019-02-24T14:26:23.414Z,16.00
2019-02-24T14:28:52.728Z,15.90
2019-02-24T14:31:21.932Z,16.20
2019-02-24T14:33:51.243Z,15.00
2019-02-24T14:36:20.430Z,15.80
2019-02-24T14:38:49.663Z,15.30
2019-02-24T14:41:18.969Z,14.60
2019-02-24T14:43:48.199Z,15.30
2019-02-24T14:46:17.468Z,15.40
2019-02-24T14:48:46.696Z,15.10
2019-02-24T14:51:15.963Z,14.90
2019-02-24T14:53:45.187Z,14.40
2019-02-24T14:56:14.360Z,14.10
2019-02-24T14:58:43.682Z,14.80
2019-02-24T15:01:12.912Z,15.20
2019-02-24T15:03:42.185Z,14.70
2019-02-24T15:06:11.432Z,14.60
2019-02-24T15:08:40.768Z,15.40
2019-02-24T15:11:09.935Z,16.60
2019-02-24T15:13:39.220Z,17.60
2019-02-24T15:16:08.568Z,18.20
2019-02-24T15:18:37.926Z,18.00
2019-02-24T15:21:07.255Z,18.70
2019-02-24T15:23:36.534Z,19.60
2019-02-24T15:26:05.772Z,19.10
2019-02-24T15:28:35.040Z,19.30
2019-02-24T15:31:04.291Z,18.90
2019-02-24T15:33:33.575Z,19.30
2019-02-24T15:36:02.891Z,19.20
2019-02-24T15:38:32.233Z,19.20
2019-02-24T15:41:01.436Z,19.60
2019-02-24T15:43:30.675Z,19.10
2019-02-24T15:45:59.921Z,19.30
2019-02-24T15:48:29.187Z,19.10
2019-02-24T15:50:58.428Z,19.60
2019-02-24T15:53:27.703Z,18.90
2019-02-24T15:55:56.975Z,18.50
2019-02-24T15:58:26.310Z,19.20
2019-02-24T16:00:55.559Z,18.80
2019-02-24T16:03:24.750Z,19.30
2019-02-24T16:05:53.995Z,19.00
2019-02-24T16:08:23.340Z,19.50
2019-02-24T16:10:52.576Z,18.80
2019-02-24T16:13:21.781Z,19.00
2019-02-24T16:15:51.101Z,19.20
2019-02-24T16:18:20.432Z,18.90
2019-02-24T16:20:49.682Z,17.80
2019-02-24T16:23:19.776Z,18.90
2019-02-24T16:25:49.016Z,18.90
2019-02-24T16:28:18.288Z,19.50
2019-02-24T16:30:47.471Z,19.90
2019-02-24T16:33:16.758Z,20.40
2019-02-24T16:35:45.940Z,20.80
2019-02-24T16:38:15.196Z,20.90
2019-02-24T16:40:44.464Z,20.60
2019-02-24T16:43:13.773Z,21.70
2019-02-24T16:45:43.027Z,21.60
2019-02-24T16:48:12.297Z,22.10
2019-02-24T16:50:41.620Z,22.90
2019-02-24T16:53:10.792Z,24.50
2019-02-24T16:55:40.082Z,26.60
2019-02-24T16:58:09.396Z,28.30
2019-02-24T17:00:38.661Z,27.70
2019-02-24T17:03:07.838Z,27.50
2019-02-24T17:05:37.601Z,27.20
2019-02-24T17:08:06.837Z,27.10
2019-02-24T17:10:36.016Z,27.70
2019-02-24T17:13:05.168Z,27.70
2019-02-24T17:15:34.448Z,27.70
2019-02-24T17:18:03.761Z,27.90
2019-02-24T17:20:33.016Z,28.10
2019-02-24T17:23:02.255Z,28.20
2019-02-24T17:25:31.526Z,28.10
2019-02-24T17:28:00.747Z,28.20
2019-02-24T17:30:30.008Z,28.20
2019-02-24T17:32:59.247Z,28.70
2019-02-24T17:35:28.511Z,28.50
2019-02-24T17:37:57.739Z,28.80
2019-02-24T17:40:27.020Z,28.80
2019-02-24T17:42:56.269Z,29.30
2019-02-24T17:45:25.540Z,29.60
2019-02-24T17:47:54.793Z,29.80
2019-02-24T17:50:23.975Z,29.90
2019-02-24T17:52:53.407Z,29.80
2019-02-24T17:55:22.746Z,30.30
2019-02-24T17:57:52.108Z,30.40
2019-02-24T18:00:26.608Z,31.20
2019-02-24T18:02:55.868Z,30.60
2019-02-24T18:05:25.207Z,30.60
2019-02-24T18:07:54.460Z,30.60
2019-02-24T18:10:23.875Z,30.80
2019-02-24T18:12:53.113Z,30.70
2019-02-24T18:15:22.365Z,30.20
2019-02-24T18:17:51.667Z,29.80
2019-02-24T18:20:20.931Z,29.80
2019-02-24T18:22:50.265Z,29.80
2019-02-24T18:25:19.591Z,29.10
2019-02-24T18:27:48.803Z,27.70
2019-02-24T18:30:20.155Z,27.10
2019-02-24T18:32:49.418Z,27.00
2019-02-24T18:35:18.757Z,26.00
2019-02-24T18:37:48.029Z,26.50
2019-02-24T18:40:17.399Z,25.20
2019-02-24T18:42:46.678Z,24.60
2019-02-24T18:45:16.020Z,24.00
2019-02-24T18:47:45.372Z,23.20
2019-02-24T18:50:14.837Z,23.10
2019-02-24T18:52:44.088Z,23.20
2019-02-24T18:55:13.339Z,23.40
2019-02-24T18:57:42.606Z,23.60
2019-02-24T19:00:13.970Z,23.80
2019-02-24T19:02:43.265Z,23.90
2019-02-24T19:05:12.487Z,23.10
2019-02-24T19:07:41.736Z,23.00
2019-02-24T19:10:12.646Z,23.20
2019-02-24T19:12:41.985Z,23.60
2019-02-24T19:15:13.387Z,23.90
2019-02-24T19:17:42.651Z,24.40
2019-02-24T19:20:13.264Z,24.60
2019-02-24T19:22:42.520Z,24.80
2019-02-24T19:25:11.836Z,25.20
2019-02-24T19:27:41.048Z,25.30
2019-02-24T19:30:12.186Z,25.50
2019-02-24T19:32:41.497Z,25.30
2019-02-24T19:35:11.319Z,25.40
2019-02-24T19:37:40.569Z,25.90
2019-02-24T19:40:11.737Z,26.30
2019-02-24T19:42:41.058Z,26.50
2019-02-24T19:45:11.001Z,26.40
2019-02-24T19:47:40.223Z,26.40
2019-02-24T19:50:11.779Z,26.50
2019-02-24T19:52:41.060Z,26.60
2019-02-24T19:55:10.480Z,26.60
2019-02-24T19:57:39.713Z,26.90
2019-02-24T20:00:12.146Z,26.90
2019-02-24T20:02:41.377Z,27.50
2019-02-24T20:05:10.649Z,27.80
2019-02-24T20:07:39.984Z,28.20
2019-02-24T20:10:09.655Z,28.50
2019-02-24T20:12:38.907Z,28.10
2019-02-24T20:15:10.193Z,28.60
2019-02-24T20:17:39.386Z,29.10
2019-02-24T20:20:09.408Z,29.10
2019-02-24T20:22:38.709Z,29.10
2019-02-24T20:25:09.077Z,29.20
2019-02-24T20:27:38.345Z,29.50
2019-02-24T20:30:19.885Z,29.80
2019-02-24T20:32:49.202Z,30.10
2019-02-24T20:35:18.507Z,30.00
2019-02-24T20:37:47.777Z,30.40
2019-02-24T20:40:16.998Z,30.60
2019-02-24T20:42:46.257Z,30.50
2019-02-24T20:45:16.522Z,30.80
2019-02-24T20:47:45.817Z,31.20
2019-02-24T20:50:15.945Z,31.10
2019-02-24T20:52:45.282Z,31.60
2019-02-24T20:55:14.671Z,31.80
2019-02-24T20:57:44.009Z,32.30
2019-02-24T21:00:17.463Z,32.40
2019-02-24T21:02:46.796Z,32.40
2019-02-24T21:05:16.040Z,31.90
2019-02-24T21:07:45.283Z,31.80
2019-02-24T21:10:14.523Z,31.70
2019-02-24T21:12:43.751Z,31.50
2019-02-24T21:15:13.522Z,31.80
2019-02-24T21:17:42.851Z,32.10
2019-02-24T21:20:14.699Z,32.40
2019-02-24T21:22:43.967Z,32.20
2019-02-24T21:25:13.203Z,32.00
2019-02-24T21:27:42.458Z,32.60
2019-02-24T21:30:14.068Z,32.90
2019-02-24T21:32:43.323Z,32.90
2019-02-24T21:35:12.763Z,33.30
2019-02-24T21:37:42.022Z,33.70
2019-02-24T21:40:11.774Z,33.70
2019-02-24T21:42:41.037Z,33.40
2019-02-24T21:45:12.844Z,34.20
2019-02-24T21:47:42.128Z,34.40
2019-02-24T21:50:12.451Z,34.60
2019-02-24T21:52:41.780Z,34.80
2019-02-24T21:55:11.217Z,34.80
2019-02-24T21:57:40.472Z,35.30
2019-02-24T22:00:15.929Z,35.40
2019-02-24T22:02:45.111Z,36.30
2019-02-24T22:05:14.566Z,36.00
2019-02-24T22:07:43.918Z,36.10
2019-02-24T22:10:13.383Z,36.00
2019-02-24T22:12:42.640Z,36.30
2019-02-24T22:15:14.245Z,36.40
2019-02-24T22:17:43.428Z,36.10
2019-02-24T22:20:12.655Z,36.00
2019-02-24T22:22:41.844Z,36.20
2019-02-24T22:25:11.384Z,35.80
2019-02-24T22:27:40.643Z,36.00
2019-02-24T22:30:12.096Z,35.80
2019-02-24T22:32:41.339Z,35.70
2019-02-24T22:35:10.737Z,35.30
2019-02-24T22:37:40.126Z,35.00
2019-02-24T22:40:10.732Z,34.40
2019-02-24T22:42:40.063Z,33.90
2019-02-24T22:45:11.189Z,33.90
2019-02-24T22:47:40.374Z,34.00
2019-02-24T22:50:10.041Z,33.80
2019-02-24T22:52:39.371Z,33.60
2019-02-24T22:55:08.712Z,33.60
2019-02-24T22:57:37.963Z,33.90
2019-02-24T23:00:18.274Z,34.00
2019-02-24T23:02:47.599Z,33.80
2019-02-24T23:05:17.000Z,33.90
2019-02-24T23:07:46.247Z,34.20
2019-02-24T23:10:15.479Z,34.40
2019-02-24T23:12:44.655Z,35.30
2019-02-24T23:15:13.879Z,35.20
2019-02-24T23:17:43.136Z,35.20
2019-02-24T23:20:12.380Z,34.80
2019-02-24T23:22:41.551Z,34.90
2019-02-24T23:25:10.888Z,34.90
2019-02-24T23:27:40.147Z,35.00
2019-02-24T23:30:09.477Z,35.00
2019-02-24T23:32:38.623Z,34.30
2019-02-24T23:35:07.979Z,34.80
2019-02-24T23:37:37.204Z,35.00
2019-02-24T23:40:06.862Z,35.10
2019-02-24T23:42:36.093Z,35.20
2019-02-24T23:45:10.287Z,35.40
2019-02-24T23:47:36.699Z,35.40
2019-02-24T23:50:05.889Z,35.40
2019-02-24T23:52:35.035Z,36.10
2019-02-24T23:55:04.311Z,36.30
2019-02-24T23:57:33.535Z,36.30
